sensor_id;sensor_type;location;lat;lon;timestamp;P1;durP1;ratioP1;P2;durP2;ratioP2
55216;SDS011;41086;46.736;15.666;2022-07-23T00:00:14;15.07;;;10.60;;
55216;SDS011;41086;46.736;15.666;2022-07-23T00:02:42;18.98;;;11.98;;
55216;SDS011;41086;46.736;15.666;2022-07-23T00:05:09;16.00;;;11.43;;
55216;SDS011;41086;46.736;15.666;2022-07-23T00:07:36;19.33;;;12.25;;
55216;SDS011;41086;46.736;15.666;2022-07-23T00:10:04;13.75;;;11.32;;
55216;SDS011;41086;46.736;15.666;2022-07-23T00:12:31;14.75;;;12.10;;
55216;SDS011;41086;46.736;15.666;2022-07-23T00:14:58;16.83;;;12.20;;
55216;SDS011;41086;46.736;15.666;2022-07-23T00:17:25;15.93;;;11.75;;
55216;SDS011;41086;46.736;15.666;2022-07-23T00:19:51;15.68;;;11.55;;
55216;SDS011;41086;46.736;15.666;2022-07-23T00:22:20;16.73;;;10.73;;
55216;SDS011;41086;46.736;15.666;2022-07-23T00:24:47;15.00;;;12.80;;
55216;SDS011;41086;46.736;15.666;2022-07-23T00:27:34;15.10;;;12.35;;
55216;SDS011;41086;46.736;15.666;2022-07-23T00:30:00;21.65;;;12.32;;
55216;SDS011;41086;46.736;15.666;2022-07-23T00:32:27;18.50;;;14.05;;
55216;SDS011;41086;46.736;15.666;2022-07-23T00:35:15;19.83;;;12.73;;
55216;SDS011;41086;46.736;15.666;2022-07-23T00:37:42;14.80;;;12.00;;
55216;SDS011;41086;46.736;15.666;2022-07-23T00:40:09;14.25;;;12.18;;
55216;SDS011;41086;46.736;15.666;2022-07-23T00:42:37;17.05;;;13.05;;
55216;SDS011;41086;46.736;15.666;2022-07-23T00:47:31;20.20;;;12.83;;
55216;SDS011;41086;46.736;15.666;2022-07-23T00:49:58;18.42;;;13.07;;
55216;SDS011;41086;46.736;15.666;2022-07-23T00:54:52;17.83;;;12.98;;
55216;SDS011;41086;46.736;15.666;2022-07-23T00:57:19;18.13;;;13.98;;
55216;SDS011;41086;46.736;15.666;2022-07-23T00:59:52;18.90;;;14.38;;
55216;SDS011;41086;46.736;15.666;2022-07-23T01:02:19;18.55;;;14.40;;
55216;SDS011;41086;46.736;15.666;2022-07-23T01:04:46;18.27;;;14.20;;
55216;SDS011;41086;46.736;15.666;2022-07-23T01:07:13;16.15;;;12.60;;
55216;SDS011;41086;46.736;15.666;2022-07-23T01:09:40;19.05;;;14.43;;
55216;SDS011;41086;46.736;15.666;2022-07-23T01:14:34;16.73;;;12.50;;
55216;SDS011;41086;46.736;15.666;2022-07-23T01:17:00;14.55;;;12.27;;
55216;SDS011;41086;46.736;15.666;2022-07-23T01:19:28;15.88;;;12.63;;
55216;SDS011;41086;46.736;15.666;2022-07-23T01:21:54;19.33;;;12.23;;
55216;SDS011;41086;46.736;15.666;2022-07-23T01:24:24;17.15;;;12.23;;
55216;SDS011;41086;46.736;15.666;2022-07-23T01:26:59;18.92;;;12.23;;
55216;SDS011;41086;46.736;15.666;2022-07-23T01:29:26;13.80;;;12.35;;
55216;SDS011;41086;46.736;15.666;2022-07-23T01:31:54;16.58;;;13.02;;
55216;SDS011;41086;46.736;15.666;2022-07-23T01:36:48;16.42;;;12.15;;
55216;SDS011;41086;46.736;15.666;2022-07-23T01:39:16;15.88;;;12.82;;
55216;SDS011;41086;46.736;15.666;2022-07-23T01:41:43;17.85;;;13.57;;
55216;SDS011;41086;46.736;15.666;2022-07-23T01:44:16;15.25;;;13.00;;
55216;SDS011;41086;46.736;15.666;2022-07-23T01:46:43;17.88;;;14.88;;
55216;SDS011;41086;46.736;15.666;2022-07-23T01:49:11;20.42;;;16.58;;
55216;SDS011;41086;46.736;15.666;2022-07-23T01:51:56;23.50;;;15.20;;
55216;SDS011;41086;46.736;15.666;2022-07-23T01:54:36;27.58;;;17.27;;
55216;SDS011;41086;46.736;15.666;2022-07-23T01:57:06;21.92;;;16.05;;
55216;SDS011;41086;46.736;15.666;2022-07-23T01:59:33;19.65;;;15.35;;
55216;SDS011;41086;46.736;15.666;2022-07-23T02:02:02;27.90;;;17.35;;
55216;SDS011;41086;46.736;15.666;2022-07-23T02:04:30;20.13;;;14.32;;
55216;SDS011;41086;46.736;15.666;2022-07-23T02:06:58;16.63;;;13.60;;
55216;SDS011;41086;46.736;15.666;2022-07-23T02:09:26;18.67;;;14.93;;
55216;SDS011;41086;46.736;15.666;2022-07-23T02:11:53;18.80;;;15.15;;
55216;SDS011;41086;46.736;15.666;2022-07-23T02:14:19;17.73;;;15.85;;
55216;SDS011;41086;46.736;15.666;2022-07-23T02:16:46;21.90;;;15.57;;
55216;SDS011;41086;46.736;15.666;2022-07-23T02:19:14;24.88;;;15.77;;
55216;SDS011;41086;46.736;15.666;2022-07-23T02:21:41;25.05;;;18.25;;
55216;SDS011;41086;46.736;15.666;2022-07-23T02:24:09;23.42;;;16.92;;
55216;SDS011;41086;46.736;15.666;2022-07-23T02:26:39;19.30;;;16.67;;
55216;SDS011;41086;46.736;15.666;2022-07-23T02:29:07;25.40;;;17.85;;
55216;SDS011;41086;46.736;15.666;2022-07-23T02:31:34;18.58;;;14.98;;
55216;SDS011;41086;46.736;15.666;2022-07-23T02:34:01;20.25;;;14.85;;
55216;SDS011;41086;46.736;15.666;2022-07-23T02:36:29;22.70;;;15.00;;
55216;SDS011;41086;46.736;15.666;2022-07-23T02:38:57;17.33;;;15.50;;
55216;SDS011;41086;46.736;15.666;2022-07-23T02:41:26;21.90;;;16.13;;
55216;SDS011;41086;46.736;15.666;2022-07-23T02:43:53;20.58;;;16.30;;
55216;SDS011;41086;46.736;15.666;2022-07-23T02:46:21;18.90;;;16.70;;
55216;SDS011;41086;46.736;15.666;2022-07-23T02:48:48;24.65;;;16.25;;
55216;SDS011;41086;46.736;15.666;2022-07-23T02:51:15;22.15;;;17.30;;
55216;SDS011;41086;46.736;15.666;2022-07-23T02:53:50;23.00;;;18.40;;
55216;SDS011;41086;46.736;15.666;2022-07-23T02:56:16;20.23;;;16.17;;
55216;SDS011;41086;46.736;15.666;2022-07-23T02:58:43;23.40;;;16.83;;
55216;SDS011;41086;46.736;15.666;2022-07-23T03:01:11;23.63;;;16.65;;
55216;SDS011;41086;46.736;15.666;2022-07-23T03:03:38;24.48;;;17.50;;
55216;SDS011;41086;46.736;15.666;2022-07-23T03:06:05;28.65;;;19.75;;
55216;SDS011;41086;46.736;15.666;2022-07-23T03:08:37;21.75;;;17.92;;
55216;SDS011;41086;46.736;15.666;2022-07-23T03:11:03;33.63;;;20.25;;
55216;SDS011;41086;46.736;15.666;2022-07-23T03:13:31;23.05;;;19.88;;
55216;SDS011;41086;46.736;15.666;2022-07-23T03:16:01;23.45;;;18.60;;
55216;SDS011;41086;46.736;15.666;2022-07-23T03:18:28;21.25;;;18.05;;
55216;SDS011;41086;46.736;15.666;2022-07-23T03:20:55;20.63;;;18.48;;
55216;SDS011;41086;46.736;15.666;2022-07-23T03:23:21;21.27;;;17.48;;
55216;SDS011;41086;46.736;15.666;2022-07-23T03:25:48;21.85;;;15.68;;
55216;SDS011;41086;46.736;15.666;2022-07-23T03:28:20;24.73;;;16.75;;
55216;SDS011;41086;46.736;15.666;2022-07-23T03:30:47;21.63;;;18.33;;
55216;SDS011;41086;46.736;15.666;2022-07-23T03:33:15;20.45;;;17.10;;
55216;SDS011;41086;46.736;15.666;2022-07-23T03:35:43;22.60;;;17.40;;
55216;SDS011;41086;46.736;15.666;2022-07-23T03:38:35;24.42;;;19.67;;
55216;SDS011;41086;46.736;15.666;2022-07-23T03:41:03;20.23;;;17.42;;
55216;SDS011;41086;46.736;15.666;2022-07-23T03:43:31;21.83;;;18.02;;
55216;SDS011;41086;46.736;15.666;2022-07-23T03:45:58;21.55;;;17.67;;
55216;SDS011;41086;46.736;15.666;2022-07-23T03:48:26;18.38;;;16.15;;
55216;SDS011;41086;46.736;15.666;2022-07-23T03:50:53;21.55;;;17.67;;
55216;SDS011;41086;46.736;15.666;2022-07-23T03:53:20;21.92;;;19.27;;
55216;SDS011;41086;46.736;15.666;2022-07-23T03:55:47;22.83;;;17.45;;
55216;SDS011;41086;46.736;15.666;2022-07-23T04:00:42;20.15;;;15.15;;
55216;SDS011;41086;46.736;15.666;2022-07-23T04:05:36;23.90;;;17.95;;
55216;SDS011;41086;46.736;15.666;2022-07-23T04:08:10;25.05;;;19.25;;
55216;SDS011;41086;46.736;15.666;2022-07-23T04:10:41;26.52;;;20.33;;
55216;SDS011;41086;46.736;15.666;2022-07-23T04:13:10;26.27;;;19.50;;
55216;SDS011;41086;46.736;15.666;2022-07-23T04:15:37;21.75;;;18.85;;
55216;SDS011;41086;46.736;15.666;2022-07-23T04:18:04;19.73;;;16.85;;
55216;SDS011;41086;46.736;15.666;2022-07-23T04:20:43;19.10;;;15.40;;
55216;SDS011;41086;46.736;15.666;2022-07-23T04:23:10;18.65;;;14.43;;
55216;SDS011;41086;46.736;15.666;2022-07-23T04:25:39;18.35;;;15.50;;
55216;SDS011;41086;46.736;15.666;2022-07-23T04:28:06;18.90;;;16.85;;
55216;SDS011;41086;46.736;15.666;2022-07-23T04:30:33;19.75;;;17.50;;
55216;SDS011;41086;46.736;15.666;2022-07-23T04:33:01;23.15;;;18.63;;
55216;SDS011;41086;46.736;15.666;2022-07-23T04:35:33;21.80;;;16.13;;
55216;SDS011;41086;46.736;15.666;2022-07-23T04:38:10;20.70;;;17.65;;
55216;SDS011;41086;46.736;15.666;2022-07-23T04:40:38;20.27;;;16.95;;
55216;SDS011;41086;46.736;15.666;2022-07-23T04:43:05;20.75;;;17.02;;
55216;SDS011;41086;46.736;15.666;2022-07-23T04:45:36;19.05;;;17.05;;
55216;SDS011;41086;46.736;15.666;2022-07-23T04:48:03;19.80;;;16.50;;
55216;SDS011;41086;46.736;15.666;2022-07-23T04:50:30;16.85;;;15.05;;
55216;SDS011;41086;46.736;15.666;2022-07-23T04:52:57;20.90;;;16.98;;
55216;SDS011;41086;46.736;15.666;2022-07-23T04:55:24;23.85;;;19.38;;
55216;SDS011;41086;46.736;15.666;2022-07-23T04:57:51;23.92;;;17.55;;
55216;SDS011;41086;46.736;15.666;2022-07-23T05:00:18;36.17;;;16.95;;
55216;SDS011;41086;46.736;15.666;2022-07-23T05:02:45;24.13;;;16.80;;
55216;SDS011;41086;46.736;15.666;2022-07-23T05:07:40;21.05;;;16.52;;
55216;SDS011;41086;46.736;15.666;2022-07-23T05:10:07;24.25;;;18.67;;
55216;SDS011;41086;46.736;15.666;2022-07-23T05:12:34;20.80;;;17.80;;
55216;SDS011;41086;46.736;15.666;2022-07-23T05:15:01;20.85;;;17.25;;
55216;SDS011;41086;46.736;15.666;2022-07-23T05:17:29;22.02;;;16.75;;
55216;SDS011;41086;46.736;15.666;2022-07-23T05:19:56;16.35;;;14.65;;
55216;SDS011;41086;46.736;15.666;2022-07-23T05:22:28;18.05;;;14.77;;
55216;SDS011;41086;46.736;15.666;2022-07-23T05:24:55;17.50;;;14.65;;
55216;SDS011;41086;46.736;15.666;2022-07-23T05:29:49;19.63;;;14.05;;
55216;SDS011;41086;46.736;15.666;2022-07-23T05:32:16;15.40;;;12.50;;
55216;SDS011;41086;46.736;15.666;2022-07-23T05:34:50;18.33;;;14.18;;
55216;SDS011;41086;46.736;15.666;2022-07-23T05:37:16;18.75;;;14.88;;
55216;SDS011;41086;46.736;15.666;2022-07-23T05:39:43;17.05;;;13.73;;
55216;SDS011;41086;46.736;15.666;2022-07-23T05:42:11;16.45;;;14.73;;
55216;SDS011;41086;46.736;15.666;2022-07-23T05:44:38;18.23;;;15.30;;
55216;SDS011;41086;46.736;15.666;2022-07-23T05:47:05;16.15;;;14.55;;
55216;SDS011;41086;46.736;15.666;2022-07-23T05:49:32;16.45;;;14.00;;
55216;SDS011;41086;46.736;15.666;2022-07-23T05:52:19;16.88;;;15.13;;
55216;SDS011;41086;46.736;15.666;2022-07-23T05:55:03;17.63;;;14.70;;
55216;SDS011;41086;46.736;15.666;2022-07-23T05:57:30;18.80;;;15.05;;
55216;SDS011;41086;46.736;15.666;2022-07-23T05:59:57;15.68;;;13.93;;
55216;SDS011;41086;46.736;15.666;2022-07-23T06:02:25;16.70;;;13.73;;
55216;SDS011;41086;46.736;15.666;2022-07-23T06:04:52;15.02;;;13.52;;
55216;SDS011;41086;46.736;15.666;2022-07-23T06:07:25;15.60;;;13.85;;
55216;SDS011;41086;46.736;15.666;2022-07-23T06:09:52;18.40;;;13.20;;
55216;SDS011;41086;46.736;15.666;2022-07-23T06:12:19;15.30;;;12.02;;
55216;SDS011;41086;46.736;15.666;2022-07-23T06:17:17;16.13;;;12.80;;
55216;SDS011;41086;46.736;15.666;2022-07-23T06:19:45;13.95;;;12.52;;
55216;SDS011;41086;46.736;15.666;2022-07-23T06:22:12;16.60;;;12.88;;
55216;SDS011;41086;46.736;15.666;2022-07-23T06:24:39;15.38;;;13.88;;
55216;SDS011;41086;46.736;15.666;2022-07-23T06:27:06;15.13;;;13.60;;
55216;SDS011;41086;46.736;15.666;2022-07-23T06:29:34;14.50;;;12.73;;
55216;SDS011;41086;46.736;15.666;2022-07-23T06:32:01;18.50;;;12.50;;
55216;SDS011;41086;46.736;15.666;2022-07-23T06:34:27;13.80;;;11.30;;
55216;SDS011;41086;46.736;15.666;2022-07-23T06:36:55;12.20;;;10.95;;
55216;SDS011;41086;46.736;15.666;2022-07-23T06:39:22;16.42;;;12.27;;
55216;SDS011;41086;46.736;15.666;2022-07-23T06:41:50;17.80;;;12.80;;
55216;SDS011;41086;46.736;15.666;2022-07-23T06:44:34;14.15;;;12.55;;
55216;SDS011;41086;46.736;15.666;2022-07-23T06:47:01;15.82;;;11.82;;
55216;SDS011;41086;46.736;15.666;2022-07-23T06:49:28;21.15;;;12.35;;
55216;SDS011;41086;46.736;15.666;2022-07-23T06:51:56;14.93;;;11.35;;
55216;SDS011;41086;46.736;15.666;2022-07-23T06:54:23;13.95;;;12.43;;
55216;SDS011;41086;46.736;15.666;2022-07-23T06:56:51;14.13;;;10.98;;
55216;SDS011;41086;46.736;15.666;2022-07-23T06:59:18;14.23;;;11.60;;
55216;SDS011;41086;46.736;15.666;2022-07-23T07:01:45;13.20;;;11.50;;
55216;SDS011;41086;46.736;15.666;2022-07-23T07:04:12;14.20;;;11.30;;
55216;SDS011;41086;46.736;15.666;2022-07-23T07:06:39;12.60;;;11.07;;
55216;SDS011;41086;46.736;15.666;2022-07-23T07:09:06;16.58;;;11.80;;
55216;SDS011;41086;46.736;15.666;2022-07-23T07:11:33;15.27;;;10.07;;
55216;SDS011;41086;46.736;15.666;2022-07-23T07:14:00;14.30;;;11.05;;
55216;SDS011;41086;46.736;15.666;2022-07-23T07:16:26;12.52;;;10.25;;
55216;SDS011;41086;46.736;15.666;2022-07-23T07:18:58;14.73;;;11.88;;
55216;SDS011;41086;46.736;15.666;2022-07-23T07:21:26;15.52;;;11.40;;
55216;SDS011;41086;46.736;15.666;2022-07-23T07:23:53;14.18;;;11.32;;
55216;SDS011;41086;46.736;15.666;2022-07-23T07:26:20;15.30;;;11.68;;
55216;SDS011;41086;46.736;15.666;2022-07-23T07:28:47;16.23;;;10.48;;
55216;SDS011;41086;46.736;15.666;2022-07-23T07:31:13;17.02;;;10.52;;
55216;SDS011;41086;46.736;15.666;2022-07-23T07:33:43;16.00;;;11.15;;
55216;SDS011;41086;46.736;15.666;2022-07-23T07:36:10;13.15;;;10.70;;
55216;SDS011;41086;46.736;15.666;2022-07-23T07:38:45;12.13;;;10.93;;
55216;SDS011;41086;46.736;15.666;2022-07-23T07:41:12;12.07;;;10.55;;
55216;SDS011;41086;46.736;15.666;2022-07-23T07:43:42;12.70;;;11.32;;
55216;SDS011;41086;46.736;15.666;2022-07-23T07:46:09;14.00;;;10.30;;
55216;SDS011;41086;46.736;15.666;2022-07-23T07:48:37;14.32;;;11.23;;
55216;SDS011;41086;46.736;15.666;2022-07-23T07:51:04;11.23;;;9.88;;
55216;SDS011;41086;46.736;15.666;2022-07-23T07:53:32;14.65;;;10.55;;
55216;SDS011;41086;46.736;15.666;2022-07-23T07:55:59;12.95;;;10.43;;
55216;SDS011;41086;46.736;15.666;2022-07-23T07:58:25;15.52;;;10.80;;
55216;SDS011;41086;46.736;15.666;2022-07-23T08:00:54;15.60;;;11.32;;
55216;SDS011;41086;46.736;15.666;2022-07-23T08:03:20;15.80;;;12.45;;
55216;SDS011;41086;46.736;15.666;2022-07-23T08:05:47;14.93;;;10.65;;
55216;SDS011;41086;46.736;15.666;2022-07-23T08:08:16;17.00;;;11.85;;
55216;SDS011;41086;46.736;15.666;2022-07-23T08:10:43;14.23;;;10.43;;
55216;SDS011;41086;46.736;15.666;2022-07-23T08:13:14;13.60;;;10.63;;
55216;SDS011;41086;46.736;15.666;2022-07-23T08:15:42;14.77;;;10.00;;
55216;SDS011;41086;46.736;15.666;2022-07-23T08:18:09;13.95;;;10.93;;
55216;SDS011;41086;46.736;15.666;2022-07-23T08:20:37;11.93;;;10.18;;
55216;SDS011;41086;46.736;15.666;2022-07-23T08:23:06;15.73;;;10.68;;
55216;SDS011;41086;46.736;15.666;2022-07-23T08:25:35;14.73;;;11.18;;
55216;SDS011;41086;46.736;15.666;2022-07-23T08:28:04;11.52;;;10.20;;
55216;SDS011;41086;46.736;15.666;2022-07-23T08:30:33;13.35;;;9.55;;
55216;SDS011;41086;46.736;15.666;2022-07-23T08:33:03;11.02;;;9.23;;
55216;SDS011;41086;46.736;15.666;2022-07-23T08:35:56;11.40;;;9.82;;
55216;SDS011;41086;46.736;15.666;2022-07-23T08:38:23;18.08;;;10.02;;
55216;SDS011;41086;46.736;15.666;2022-07-23T08:40:52;10.30;;;9.25;;
55216;SDS011;41086;46.736;15.666;2022-07-23T08:43:22;10.57;;;9.45;;
55216;SDS011;41086;46.736;15.666;2022-07-23T08:45:52;10.60;;;8.43;;
55216;SDS011;41086;46.736;15.666;2022-07-23T08:48:28;11.85;;;9.07;;
55216;SDS011;41086;46.736;15.666;2022-07-23T08:50:59;10.68;;;9.43;;
55216;SDS011;41086;46.736;15.666;2022-07-23T08:53:27;11.48;;;9.02;;
55216;SDS011;41086;46.736;15.666;2022-07-23T08:55:56;9.60;;;8.27;;
55216;SDS011;41086;46.736;15.666;2022-07-23T08:58:24;13.75;;;9.32;;
55216;SDS011;41086;46.736;15.666;2022-07-23T09:00:54;10.85;;;9.10;;
55216;SDS011;41086;46.736;15.666;2022-07-23T09:03:27;14.93;;;10.07;;
55216;SDS011;41086;46.736;15.666;2022-07-23T09:05:59;11.45;;;8.88;;
55216;SDS011;41086;46.736;15.666;2022-07-23T09:08:35;11.68;;;9.50;;
55216;SDS011;41086;46.736;15.666;2022-07-23T09:11:03;11.52;;;9.25;;
55216;SDS011;41086;46.736;15.666;2022-07-23T09:13:38;9.85;;;8.85;;
55216;SDS011;41086;46.736;15.666;2022-07-23T09:18:44;11.35;;;8.30;;
55216;SDS011;41086;46.736;15.666;2022-07-23T09:23:55;8.52;;;7.60;;
55216;SDS011;41086;46.736;15.666;2022-07-23T09:26:30;7.65;;;6.80;;
55216;SDS011;41086;46.736;15.666;2022-07-23T09:31:52;8.52;;;7.25;;
55216;SDS011;41086;46.736;15.666;2022-07-23T09:34:30;13.73;;;7.13;;
55216;SDS011;41086;46.736;15.666;2022-07-23T09:37:14;10.43;;;7.53;;
55216;SDS011;41086;46.736;15.666;2022-07-23T09:39:44;9.35;;;7.15;;
55216;SDS011;41086;46.736;15.666;2022-07-23T09:42:13;12.90;;;7.63;;
55216;SDS011;41086;46.736;15.666;2022-07-23T09:44:45;10.00;;;7.35;;
55216;SDS011;41086;46.736;15.666;2022-07-23T09:47:16;11.02;;;7.70;;
55216;SDS011;41086;46.736;15.666;2022-07-23T09:50:03;8.27;;;6.95;;
55216;SDS011;41086;46.736;15.666;2022-07-23T09:52:33;9.73;;;7.80;;
55216;SDS011;41086;46.736;15.666;2022-07-23T09:55:05;8.73;;;7.78;;
55216;SDS011;41086;46.736;15.666;2022-07-23T09:57:33;9.40;;;8.32;;
55216;SDS011;41086;46.736;15.666;2022-07-23T10:00:01;8.90;;;7.38;;
55216;SDS011;41086;46.736;15.666;2022-07-23T10:02:32;9.52;;;7.47;;
55216;SDS011;41086;46.736;15.666;2022-07-23T10:05:23;12.55;;;7.90;;
55216;SDS011;41086;46.736;15.666;2022-07-23T10:08:11;8.48;;;7.13;;
55216;SDS011;41086;46.736;15.666;2022-07-23T10:10:59;9.82;;;7.63;;
55216;SDS011;41086;46.736;15.666;2022-07-23T10:13:57;10.63;;;7.88;;
55216;SDS011;41086;46.736;15.666;2022-07-23T10:16:34;8.15;;;6.88;;
55216;SDS011;41086;46.736;15.666;2022-07-23T10:19:02;11.27;;;8.07;;
55216;SDS011;41086;46.736;15.666;2022-07-23T10:29:52;8.52;;;7.60;;
55216;SDS011;41086;46.736;15.666;2022-07-23T10:32:35;7.97;;;7.18;;
55216;SDS011;41086;46.736;15.666;2022-07-23T10:37:44;8.98;;;6.82;;
55216;SDS011;41086;46.736;15.666;2022-07-23T10:40:19;11.13;;;7.75;;
55216;SDS011;41086;46.736;15.666;2022-07-23T10:42:48;8.30;;;7.15;;
55216;SDS011;41086;46.736;15.666;2022-07-23T10:47:54;8.35;;;7.43;;
55216;SDS011;41086;46.736;15.666;2022-07-23T10:58:03;7.68;;;6.80;;
55216;SDS011;41086;46.736;15.666;2022-07-23T11:00:32;7.68;;;6.88;;
55216;SDS011;41086;46.736;15.666;2022-07-23T11:03:01;12.85;;;7.25;;
55216;SDS011;41086;46.736;15.666;2022-07-23T11:05:40;8.23;;;6.70;;
55216;SDS011;41086;46.736;15.666;2022-07-23T11:08:10;8.23;;;7.15;;
55216;SDS011;41086;46.736;15.666;2022-07-23T11:10:46;10.25;;;7.38;;
55216;SDS011;41086;46.736;15.666;2022-07-23T11:31:55;9.77;;;7.43;;
55216;SDS011;41086;46.736;15.666;2022-07-23T11:34:35;9.30;;;7.38;;
55216;SDS011;41086;46.736;15.666;2022-07-23T11:37:10;8.38;;;7.47;;
55216;SDS011;41086;46.736;15.666;2022-07-23T11:39:38;7.57;;;6.80;;
55216;SDS011;41086;46.736;15.666;2022-07-23T11:42:06;12.18;;;7.40;;
55216;SDS011;41086;46.736;15.666;2022-07-23T11:44:37;11.65;;;7.72;;
55216;SDS011;41086;46.736;15.666;2022-07-23T11:47:06;8.25;;;7.40;;
55216;SDS011;41086;46.736;15.666;2022-07-23T11:49:35;8.98;;;7.57;;
55216;SDS011;41086;46.736;15.666;2022-07-23T11:52:12;7.82;;;7.03;;
55216;SDS011;41086;46.736;15.666;2022-07-23T11:54:47;13.35;;;7.68;;
55216;SDS011;41086;46.736;15.666;2022-07-23T11:57:21;9.43;;;7.28;;
55216;SDS011;41086;46.736;15.666;2022-07-23T11:59:52;8.18;;;7.38;;
55216;SDS011;41086;46.736;15.666;2022-07-23T12:02:22;10.40;;;7.90;;
55216;SDS011;41086;46.736;15.666;2022-07-23T12:04:50;10.70;;;6.82;;
55216;SDS011;41086;46.736;15.666;2022-07-23T12:07:25;8.52;;;7.63;;
55216;SDS011;41086;46.736;15.666;2022-07-23T12:10:01;8.88;;;7.28;;
55216;SDS011;41086;46.736;15.666;2022-07-23T12:12:34;7.95;;;7.10;;
55216;SDS011;41086;46.736;15.666;2022-07-23T12:15:02;9.88;;;7.38;;
55216;SDS011;41086;46.736;15.666;2022-07-23T12:17:31;8.75;;;6.80;;
55216;SDS011;41086;46.736;15.666;2022-07-23T12:20:00;8.82;;;7.90;;
55216;SDS011;41086;46.736;15.666;2022-07-23T12:22:47;8.30;;;6.97;;
55216;SDS011;41086;46.736;15.666;2022-07-23T12:25:20;8.18;;;6.82;;
55216;SDS011;41086;46.736;15.666;2022-07-23T12:27:58;10.05;;;7.80;;
55216;SDS011;41086;46.736;15.666;2022-07-23T12:30:26;8.10;;;7.30;;
55216;SDS011;41086;46.736;15.666;2022-07-23T12:33:00;8.75;;;7.78;;
55216;SDS011;41086;46.736;15.666;2022-07-23T12:35:36;7.75;;;6.95;;
55216;SDS011;41086;46.736;15.666;2022-07-23T12:38:08;15.40;;;7.97;;
55216;SDS011;41086;46.736;15.666;2022-07-23T12:43:10;9.68;;;7.55;;
55216;SDS011;41086;46.736;15.666;2022-07-23T12:45:45;8.40;;;7.40;;
55216;SDS011;41086;46.736;15.666;2022-07-23T12:48:29;7.63;;;6.85;;
55216;SDS011;41086;46.736;15.666;2022-07-23T12:50:58;8.23;;;7.28;;
55216;SDS011;41086;46.736;15.666;2022-07-23T12:53:33;7.75;;;6.95;;
55216;SDS011;41086;46.736;15.666;2022-07-23T12:56:07;8.93;;;8.02;;
55216;SDS011;41086;46.736;15.666;2022-07-23T13:04:10;9.10;;;8.05;;
55216;SDS011;41086;46.736;15.666;2022-07-23T13:09:16;7.93;;;6.97;;
55216;SDS011;41086;46.736;15.666;2022-07-23T13:11:48;8.10;;;7.30;;
55216;SDS011;41086;46.736;15.666;2022-07-23T13:14:18;8.55;;;7.47;;
55216;SDS011;41086;46.736;15.666;2022-07-23T13:16:47;9.43;;;7.63;;
55216;SDS011;41086;46.736;15.666;2022-07-23T13:19:17;10.68;;;7.68;;
55216;SDS011;41086;46.736;15.666;2022-07-23T13:21:46;10.35;;;7.95;;
55216;SDS011;41086;46.736;15.666;2022-07-23T13:24:13;10.32;;;7.88;;
55216;SDS011;41086;46.736;15.666;2022-07-23T13:26:40;12.55;;;7.57;;
55216;SDS011;41086;46.736;15.666;2022-07-23T13:29:07;7.13;;;6.43;;
55216;SDS011;41086;46.736;15.666;2022-07-23T13:31:36;9.10;;;7.28;;
55216;SDS011;41086;46.736;15.666;2022-07-23T13:34:04;9.45;;;7.22;;
55216;SDS011;41086;46.736;15.666;2022-07-23T13:36:33;11.73;;;7.25;;
55216;SDS011;41086;46.736;15.666;2022-07-23T13:39:02;8.90;;;7.03;;
55216;SDS011;41086;46.736;15.666;2022-07-23T13:41:32;8.20;;;7.22;;
55216;SDS011;41086;46.736;15.666;2022-07-23T13:43:59;13.20;;;7.15;;
55216;SDS011;41086;46.736;15.666;2022-07-23T13:46:26;10.10;;;7.45;;
55216;SDS011;41086;46.736;15.666;2022-07-23T13:48:53;11.95;;;7.43;;
55216;SDS011;41086;46.736;15.666;2022-07-23T13:51:20;9.15;;;6.68;;
55216;SDS011;41086;46.736;15.666;2022-07-23T13:53:49;8.32;;;7.32;;
55216;SDS011;41086;46.736;15.666;2022-07-23T13:56:16;10.15;;;7.65;;
55216;SDS011;41086;46.736;15.666;2022-07-23T13:58:43;73.05;;;10.40;;
55216;SDS011;41086;46.736;15.666;2022-07-23T14:01:10;31.30;;;8.43;;
55216;SDS011;41086;46.736;15.666;2022-07-23T14:03:37;10.85;;;7.10;;
55216;SDS011;41086;46.736;15.666;2022-07-23T14:06:05;7.97;;;7.05;;
55216;SDS011;41086;46.736;15.666;2022-07-23T14:08:44;8.52;;;7.03;;
55216;SDS011;41086;46.736;15.666;2022-07-23T14:11:13;9.05;;;7.22;;
55216;SDS011;41086;46.736;15.666;2022-07-23T14:13:40;10.05;;;7.25;;
55216;SDS011;41086;46.736;15.666;2022-07-23T14:16:07;7.88;;;7.07;;
55216;SDS011;41086;46.736;15.666;2022-07-23T14:18:34;8.98;;;6.95;;
55216;SDS011;41086;46.736;15.666;2022-07-23T14:21:03;8.60;;;7.18;;
55216;SDS011;41086;46.736;15.666;2022-07-23T14:23:32;11.38;;;7.45;;
55216;SDS011;41086;46.736;15.666;2022-07-23T14:25:59;7.70;;;6.68;;
55216;SDS011;41086;46.736;15.666;2022-07-23T14:28:26;8.05;;;6.60;;
55216;SDS011;41086;46.736;15.666;2022-07-23T14:30:53;7.68;;;6.93;;
55216;SDS011;41086;46.736;15.666;2022-07-23T14:33:20;9.73;;;7.40;;
55216;SDS011;41086;46.736;15.666;2022-07-23T14:35:47;10.63;;;7.00;;
55216;SDS011;41086;46.736;15.666;2022-07-23T14:38:14;12.05;;;7.43;;
55216;SDS011;41086;46.736;15.666;2022-07-23T14:40:41;8.65;;;7.00;;
55216;SDS011;41086;46.736;15.666;2022-07-23T14:43:08;8.82;;;6.90;;
55216;SDS011;41086;46.736;15.666;2022-07-23T14:45:37;7.38;;;6.68;;
55216;SDS011;41086;46.736;15.666;2022-07-23T14:48:05;11.32;;;7.13;;
55216;SDS011;41086;46.736;15.666;2022-07-23T14:50:33;6.95;;;6.25;;
55216;SDS011;41086;46.736;15.666;2022-07-23T14:53:00;7.82;;;7.03;;
55216;SDS011;41086;46.736;15.666;2022-07-23T14:55:30;7.78;;;6.97;;
55216;SDS011;41086;46.736;15.666;2022-07-23T14:57:57;8.98;;;6.10;;
55216;SDS011;41086;46.736;15.666;2022-07-23T15:00:26;11.43;;;7.20;;
55216;SDS011;41086;46.736;15.666;2022-07-23T15:02:53;8.93;;;6.90;;
55216;SDS011;41086;46.736;15.666;2022-07-23T15:05:21;7.78;;;6.75;;
55216;SDS011;41086;46.736;15.666;2022-07-23T15:07:50;8.20;;;6.72;;
55216;SDS011;41086;46.736;15.666;2022-07-23T15:10:17;8.48;;;6.57;;
55216;SDS011;41086;46.736;15.666;2022-07-23T15:12:48;7.53;;;6.72;;
55216;SDS011;41086;46.736;15.666;2022-07-23T15:15:15;11.02;;;6.45;;
55216;SDS011;41086;46.736;15.666;2022-07-23T15:17:44;8.15;;;7.00;;
55216;SDS011;41086;46.736;15.666;2022-07-23T15:20:11;8.82;;;6.88;;
55216;SDS011;41086;46.736;15.666;2022-07-23T15:22:40;8.25;;;6.65;;
55216;SDS011;41086;46.736;15.666;2022-07-23T15:25:08;14.65;;;7.47;;
55216;SDS011;41086;46.736;15.666;2022-07-23T15:27:37;10.57;;;6.78;;
55216;SDS011;41086;46.736;15.666;2022-07-23T15:30:04;10.48;;;7.03;;
55216;SDS011;41086;46.736;15.666;2022-07-23T15:32:33;9.13;;;6.78;;
55216;SDS011;41086;46.736;15.666;2022-07-23T15:35:01;9.20;;;7.63;;
55216;SDS011;41086;46.736;15.666;2022-07-23T15:37:31;6.90;;;6.20;;
55216;SDS011;41086;46.736;15.666;2022-07-23T15:40:00;14.55;;;7.70;;
55216;SDS011;41086;46.736;15.666;2022-07-23T15:42:28;9.75;;;7.03;;
55216;SDS011;41086;46.736;15.666;2022-07-23T15:44:55;10.90;;;7.00;;
55216;SDS011;41086;46.736;15.666;2022-07-23T15:47:22;7.95;;;6.50;;
55216;SDS011;41086;46.736;15.666;2022-07-23T15:49:50;7.38;;;6.43;;
55216;SDS011;41086;46.736;15.666;2022-07-23T15:52:17;10.70;;;6.35;;